createdAt,value
2022-09-20T00:00:11.731Z,8.4
2022-09-20T00:03:11.863Z,8.4
2022-09-20T00:06:11.739Z,8.4
2022-09-20T00:09:11.733Z,8.4
2022-09-20T00:12:11.676Z,8.3
2022-09-20T00:15:11.719Z,8.3
2022-09-20T00:18:11.716Z,8.1
2022-09-20T00:21:11.801Z,8.1
2022-09-20T00:24:11.669Z,8.1
2022-09-20T00:27:11.755Z,8.1
2022-09-20T00:30:11.712Z,8.1
2022-09-20T00:33:11.669Z,8.1
2022-09-20T00:36:11.684Z,8.1
2022-09-20T00:39:11.678Z,8.1
2022-09-20T00:42:11.665Z,8.1
2022-09-20T00:45:11.706Z,8.1
2022-09-20T00:48:11.694Z,8.1
2022-09-20T00:51:11.639Z,8.1
2022-09-20T00:54:11.727Z,8.3
2022-09-20T00:57:11.659Z,8.3
2022-09-20T01:00:11.683Z,8.3
2022-09-20T01:03:11.646Z,8.3
2022-09-20T01:06:11.682Z,8.3
2022-09-20T01:09:11.750Z,8.1
2022-09-20T01:12:11.797Z,8.1
2022-09-20T01:15:11.657Z,8
2022-09-20T01:18:11.664Z,8
2022-09-20T01:21:11.658Z,8
2022-09-20T01:24:11.653Z,8
2022-09-20T01:27:11.624Z,8
2022-09-20T01:30:11.757Z,8.1
2022-09-20T01:33:11.692Z,8.3
2022-09-20T01:36:11.623Z,8.4
2022-09-20T01:39:11.810Z,8.5
2022-09-20T01:42:11.833Z,8.6
2022-09-20T01:45:11.767Z,8.9
2022-09-20T01:48:11.857Z,9
2022-09-20T01:51:11.720Z,9.1
2022-09-20T01:54:11.706Z,9.1
2022-09-20T01:57:11.680Z,9.3
2022-09-20T02:00:11.860Z,9.4
2022-09-20T02:03:11.697Z,9.4
2022-09-20T02:06:11.753Z,9.4
2022-09-20T02:09:11.717Z,9.5
2022-09-20T02:12:11.711Z,9.5
2022-09-20T02:15:11.820Z,9.6
2022-09-20T02:18:11.766Z,9.6
2022-09-20T02:21:11.678Z,9.6
2022-09-20T02:24:11.782Z,9.6
2022-09-20T02:27:11.708Z,9.8
2022-09-20T02:30:11.768Z,9.8
2022-09-20T02:33:11.761Z,9.8
2022-09-20T02:36:11.714Z,9.8
2022-09-20T02:39:11.715Z,9.9
2022-09-20T02:42:11.670Z,9.8
2022-09-20T02:45:11.734Z,9.9
2022-09-20T02:48:11.866Z,9.9
2022-09-20T02:51:11.674Z,9.9
2022-09-20T02:54:11.779Z,9.9
2022-09-20T02:57:11.720Z,9.9
2022-09-20T03:00:11.742Z,9.9
2022-09-20T03:03:11.621Z,9.9
2022-09-20T03:06:11.745Z,9.9
2022-09-20T03:09:11.661Z,9.9
2022-09-20T03:12:11.713Z,9.9
2022-09-20T03:15:11.725Z,9.9
2022-09-20T03:18:11.697Z,9.9
2022-09-20T03:21:11.738Z,9.9
2022-09-20T03:24:11.684Z,9.8
2022-09-20T03:27:11.697Z,9.8
2022-09-20T03:30:11.793Z,9.8
2022-09-20T03:33:11.691Z,9.9
2022-09-20T03:36:11.740Z,9.9
2022-09-20T03:39:11.868Z,9.8
2022-09-20T03:42:11.770Z,9.8
2022-09-20T03:45:11.710Z,9.9
2022-09-20T03:48:11.743Z,9.8
2022-09-20T03:51:11.692Z,9.9
2022-09-20T03:54:11.733Z,9.9
2022-09-20T03:57:11.671Z,9.9
2022-09-20T04:00:11.910Z,9.9
2022-09-20T04:03:11.661Z,9.9
2022-09-20T04:06:11.725Z,9.9
2022-09-20T04:09:11.718Z,9.9
2022-09-20T04:12:12.672Z,9.9
2022-09-20T04:15:11.711Z,9.9
2022-09-20T04:18:11.718Z,9.9
2022-09-20T04:21:11.660Z,9.9
2022-09-20T04:24:11.753Z,10
2022-09-20T04:27:11.766Z,9.9
2022-09-20T04:30:11.835Z,10
2022-09-20T04:33:11.714Z,10
2022-09-20T04:36:11.886Z,10
2022-09-20T04:39:11.742Z,10
2022-09-20T04:42:11.701Z,10
2022-09-20T04:45:11.780Z,10
2022-09-20T04:48:11.728Z,10
2022-09-20T04:51:11.792Z,10
2022-09-20T04:54:11.728Z,10
2022-09-20T04:57:11.695Z,10
2022-09-20T05:00:11.669Z,10
2022-09-20T05:03:11.713Z,10
2022-09-20T05:06:11.748Z,10
2022-09-20T05:09:12.246Z,10
2022-09-20T05:12:11.753Z,10
2022-09-20T05:15:11.764Z,10
2022-09-20T05:18:11.684Z,10
2022-09-20T05:21:12.041Z,10
2022-09-20T05:24:17.244Z,10.1
2022-09-20T05:27:11.767Z,10.1
2022-09-20T05:30:16.393Z,10.3
2022-09-20T05:33:11.844Z,10.3
2022-09-20T05:36:11.786Z,10.3
2022-09-20T05:39:14.927Z,10.4
2022-09-20T05:42:11.810Z,10.5
2022-09-20T05:45:11.778Z,10.5
2022-09-20T05:48:11.804Z,10.5
2022-09-20T05:51:15.066Z,10.6
2022-09-20T05:54:11.725Z,10.8
2022-09-20T05:57:11.754Z,11
2022-09-20T06:00:11.827Z,11.1
2022-09-20T06:03:11.761Z,11.3
2022-09-20T06:06:11.733Z,11.3
2022-09-20T06:09:11.741Z,11.4
2022-09-20T06:12:11.749Z,11.4
2022-09-20T06:15:11.705Z,11.5
2022-09-20T06:18:11.764Z,11.5
2022-09-20T06:21:11.736Z,11.5
2022-09-20T06:24:11.708Z,11.6
2022-09-20T06:27:11.680Z,11.8
2022-09-20T06:30:11.832Z,11.9
2022-09-20T06:33:11.726Z,12.1
2022-09-20T06:36:11.665Z,12.2
2022-09-20T06:39:11.781Z,12.2
2022-09-20T06:42:11.732Z,12.4
2022-09-20T06:45:11.857Z,12.6
2022-09-20T06:48:11.739Z,12.8
2022-09-20T06:51:11.723Z,12.8
2022-09-20T06:54:11.743Z,12.9
2022-09-20T06:57:11.737Z,13.1
2022-09-20T07:00:11.802Z,13.3
2022-09-20T07:03:11.736Z,13.3
2022-09-20T07:06:11.737Z,13.1
2022-09-20T07:09:11.765Z,13
2022-09-20T07:12:11.725Z,12.9
2022-09-20T07:15:11.779Z,13
2022-09-20T07:18:11.774Z,13.3
2022-09-20T07:21:11.688Z,14.1
2022-09-20T07:24:11.788Z,14.7
2022-09-20T07:27:11.771Z,15
2022-09-20T07:30:11.838Z,14.7
2022-09-20T07:33:11.692Z,14.4
2022-09-20T07:36:11.787Z,14.3
2022-09-20T07:39:11.830Z,14.7
2022-09-20T07:42:11.756Z,14.9
2022-09-20T07:45:11.811Z,14.7
2022-09-20T07:48:11.741Z,14.7
2022-09-20T07:51:16.665Z,14.9
2022-09-20T07:54:11.732Z,15
2022-09-20T07:57:11.673Z,15.5
2022-09-20T08:00:11.799Z,15.8
2022-09-20T08:03:11.743Z,16
2022-09-20T08:06:11.767Z,16.5
2022-09-20T08:09:16.779Z,16.8
2022-09-20T08:15:16.674Z,17
2022-09-20T08:18:11.829Z,17.2
2022-09-20T08:21:11.808Z,17.8
2022-09-20T08:24:11.803Z,18.4
2022-09-20T08:27:11.725Z,18.9
2022-09-20T08:30:11.850Z,19.1
2022-09-20T08:33:11.846Z,19.4
2022-09-20T08:36:11.741Z,19.4
2022-09-20T08:42:11.750Z,19
2022-09-20T08:45:21.806Z,19.5
2022-09-20T08:48:14.166Z,21
2022-09-20T08:51:22.549Z,21.5
2022-09-20T08:54:11.709Z,21.2
2022-09-20T08:57:11.821Z,21.2
2022-09-20T09:00:11.833Z,21.2
2022-09-20T09:03:11.736Z,22.2
2022-09-20T09:06:22.742Z,21.5
2022-09-20T09:09:11.846Z,21.2
2022-09-20T09:12:11.819Z,21.4
2022-09-20T09:15:17.469Z,22
2022-09-20T09:18:11.823Z,22.9
2022-09-20T09:21:11.858Z,22.9
2022-09-20T09:24:11.782Z,22.5
2022-09-20T09:27:11.725Z,22.1
2022-09-20T09:30:11.889Z,23.6
2022-09-20T09:33:11.706Z,26.9
2022-09-20T09:36:11.731Z,25.9
2022-09-20T09:39:11.792Z,25
2022-09-20T09:42:11.887Z,24
2022-09-20T09:45:11.748Z,23.5
2022-09-20T09:48:12.089Z,23.5
2022-09-20T09:51:11.766Z,23
2022-09-20T09:54:11.701Z,23.5
2022-09-20T09:57:11.737Z,24.4
2022-09-20T10:00:27.133Z,26.9
2022-09-20T10:03:11.713Z,26.5
2022-09-20T10:06:11.720Z,27.5
2022-09-20T10:09:11.760Z,27.5
2022-09-20T10:12:11.764Z,27
2022-09-20T10:15:11.745Z,25.6
2022-09-20T10:18:11.791Z,25.1
2022-09-20T10:21:11.718Z,26.2
2022-09-20T10:24:16.011Z,26.9
2022-09-20T10:27:11.882Z,26
2022-09-20T10:30:11.732Z,24.9
2022-09-20T10:33:11.664Z,23.7
2022-09-20T10:36:11.741Z,23.1
2022-09-20T10:39:11.749Z,22.5
2022-09-20T10:42:11.820Z,22.1
2022-09-20T10:45:11.769Z,21.5
2022-09-20T10:48:11.734Z,21.1
2022-09-20T10:51:11.723Z,22.2
2022-09-20T10:54:11.823Z,26.8
2022-09-20T10:57:11.814Z,30.8
2022-09-20T11:00:11.836Z,32.7
2022-09-20T11:03:11.799Z,34.6
2022-09-20T11:06:11.756Z,36
2022-09-20T11:09:16.550Z,37
2022-09-20T11:12:11.780Z,38
2022-09-20T11:15:11.713Z,38.6
2022-09-20T11:18:11.815Z,38.6
2022-09-20T11:21:11.821Z,34.7
2022-09-20T11:24:11.771Z,38.4
2022-09-20T11:27:11.807Z,40.4
2022-09-20T11:30:11.843Z,41.4
2022-09-20T11:33:11.751Z,42
2022-09-20T11:36:11.833Z,41
2022-09-20T11:39:11.991Z,41.7
2022-09-20T11:42:11.745Z,42.2
2022-09-20T11:45:11.811Z,43
2022-09-20T11:48:11.775Z,43.5
2022-09-20T11:51:11.771Z,43.7
2022-09-20T11:54:11.885Z,44.5
2022-09-20T11:57:11.675Z,44.5
2022-09-20T12:00:11.886Z,39.2
2022-09-20T12:03:12.998Z,36.1
2022-09-20T12:06:11.770Z,33.4
2022-09-20T12:09:11.831Z,30.9
2022-09-20T12:12:11.755Z,34.1
2022-09-20T12:15:11.808Z,37
2022-09-20T12:18:20.030Z,35
2022-09-20T12:21:17.467Z,38.2
2022-09-20T12:24:11.757Z,38.7
2022-09-20T12:27:11.798Z,40.4
2022-09-20T12:30:11.954Z,41.5
2022-09-20T12:33:11.789Z,42.6
2022-09-20T12:36:11.750Z,44.2
2022-09-20T12:39:11.738Z,44
2022-09-20T12:42:11.825Z,41.7
2022-09-20T12:45:11.819Z,37.2
2022-09-20T12:48:11.796Z,33.5
2022-09-20T12:51:11.756Z,30.6
2022-09-20T12:54:11.706Z,28.9
2022-09-20T12:57:11.739Z,27.5
2022-09-20T13:00:11.890Z,29.6
2022-09-20T13:03:11.705Z,31.6
2022-09-20T13:06:11.791Z,36.2
2022-09-20T13:09:12.703Z,39.7
2022-09-20T13:12:11.734Z,42.5
2022-09-20T13:15:11.742Z,41.5
2022-09-20T13:18:11.787Z,39.5
2022-09-20T13:21:11.673Z,37.1
2022-09-20T13:24:11.765Z,36.7
2022-09-20T13:27:11.786Z,34.4
2022-09-20T13:30:11.802Z,32.4
2022-09-20T13:33:11.750Z,30.4
2022-09-20T13:36:11.718Z,30.1
2022-09-20T13:39:11.727Z,32.9
2022-09-20T13:42:11.697Z,35.7
2022-09-20T13:45:11.729Z,37.2
2022-09-20T13:48:11.791Z,38.2
2022-09-20T13:51:11.694Z,38.7
2022-09-20T13:54:11.694Z,39
2022-09-20T13:57:11.733Z,39.2
2022-09-20T14:00:12.023Z,39.1
2022-09-20T14:03:11.776Z,39.1
2022-09-20T14:06:11.749Z,39
2022-09-20T14:09:18.103Z,39
2022-09-20T14:12:11.768Z,39
2022-09-20T14:15:11.746Z,39
2022-09-20T14:18:11.742Z,38.9
2022-09-20T14:21:11.758Z,38.7
2022-09-20T14:24:11.773Z,38.9
2022-09-20T14:27:11.703Z,39.1
2022-09-20T14:30:11.826Z,36
2022-09-20T14:33:11.757Z,31.6
2022-09-20T14:36:11.794Z,29.3
2022-09-20T14:39:11.759Z,27.1
2022-09-20T14:42:11.708Z,31.2
2022-09-20T14:45:11.747Z,33.6
2022-09-20T14:48:18.393Z,35.5
2022-09-20T14:51:11.779Z,37.1
2022-09-20T14:54:11.712Z,38.4
2022-09-20T14:57:11.741Z,37.4
2022-09-20T15:00:11.860Z,35
2022-09-20T15:03:11.729Z,33
2022-09-20T15:06:11.811Z,34.6
2022-09-20T15:09:11.767Z,30.5
2022-09-20T15:12:11.814Z,27.8
2022-09-20T15:15:11.802Z,25.9
2022-09-20T15:18:11.770Z,24.6
2022-09-20T15:21:11.943Z,24.4
2022-09-20T15:24:11.788Z,23.3
2022-09-20T15:27:11.736Z,22.5
2022-09-20T15:30:12.595Z,22
2022-09-20T15:33:14.317Z,22.4
2022-09-20T15:36:11.805Z,22.8
2022-09-20T15:39:11.757Z,22
2022-09-20T15:42:11.730Z,21.8
2022-09-20T15:45:11.811Z,22.4
2022-09-20T15:48:11.782Z,23.6
2022-09-20T15:51:11.727Z,25.1
2022-09-20T15:54:11.751Z,27.1
2022-09-20T15:57:11.705Z,28.3
2022-09-20T16:00:11.716Z,27.4
2022-09-20T16:03:11.712Z,27.5
2022-09-20T16:06:15.765Z,28.3
2022-09-20T16:09:11.737Z,27.1
2022-09-20T16:12:11.757Z,24.4
2022-09-20T16:15:11.798Z,23.3
2022-09-20T16:18:11.785Z,22.6
2022-09-20T16:21:11.717Z,22.8
2022-09-20T16:24:11.756Z,22.9
2022-09-20T16:27:11.743Z,24
2022-09-20T16:30:11.832Z,22.9
2022-09-20T16:33:11.864Z,21.5
2022-09-20T16:36:32.107Z,20.6
2022-09-20T16:39:11.742Z,19.9
2022-09-20T16:42:11.774Z,19.4
2022-09-20T16:45:11.742Z,20.9
2022-09-20T16:48:17.071Z,21.1
2022-09-20T16:51:11.682Z,19.6
2022-09-20T16:54:11.774Z,18.8
2022-09-20T16:57:11.834Z,17.9
2022-09-20T17:00:11.793Z,17.1
2022-09-20T17:03:11.773Z,16.4
2022-09-20T17:06:11.716Z,15.6
2022-09-20T17:09:11.756Z,15.1
2022-09-20T17:12:11.880Z,14.5
2022-09-20T17:15:11.736Z,14.1
2022-09-20T17:18:17.554Z,13.6
2022-09-20T17:21:11.716Z,13.3
2022-09-20T17:24:11.770Z,12.9
2022-09-20T17:27:11.770Z,12.5
2022-09-20T17:30:11.672Z,12.2
2022-09-20T17:33:11.659Z,12
2022-09-20T17:36:11.667Z,11.8
2022-09-20T17:39:15.693Z,11.5
2022-09-20T17:42:11.762Z,11.4
2022-09-20T17:45:11.655Z,11.1
2022-09-20T17:48:12.409Z,11
2022-09-20T17:51:17.143Z,10.8
2022-09-20T17:54:11.730Z,10.6
2022-09-20T17:57:11.669Z,10.5
2022-09-20T18:00:11.817Z,10.4
2022-09-20T18:03:16.198Z,10.4
2022-09-20T18:06:11.707Z,10.3
2022-09-20T18:09:11.673Z,10.1
2022-09-20T18:12:18.218Z,10
2022-09-20T18:15:11.674Z,10
2022-09-20T18:18:11.715Z,10
2022-09-20T18:21:11.673Z,9.9
2022-09-20T18:24:11.674Z,9.8
2022-09-20T18:27:12.130Z,9.8
2022-09-20T18:30:11.764Z,9.8
2022-09-20T18:33:11.629Z,9.8
2022-09-20T18:36:11.703Z,9.6
2022-09-20T18:39:11.740Z,9.6
2022-09-20T18:42:11.745Z,9.4
2022-09-20T18:45:11.739Z,9.3
2022-09-20T18:48:11.623Z,9.3
2022-09-20T18:51:11.672Z,9.1
2022-09-20T18:54:11.868Z,9
2022-09-20T18:57:11.713Z,8.9
2022-09-20T19:00:15.315Z,8.8
2022-09-20T19:03:17.139Z,8.8
2022-09-20T19:06:11.647Z,8.6
2022-09-20T19:09:11.847Z,8.5
2022-09-20T19:12:11.676Z,8.4
2022-09-20T19:15:11.740Z,8.3
2022-09-20T19:18:11.798Z,8.1
2022-09-20T19:21:11.763Z,8
2022-09-20T19:24:14.886Z,7.9
2022-09-20T19:27:11.715Z,7.9
2022-09-20T19:30:11.684Z,7.7
2022-09-20T19:33:11.705Z,7.7
2022-09-20T19:36:11.723Z,7.6
2022-09-20T19:39:11.850Z,7.6
2022-09-20T19:42:11.714Z,7.6
2022-09-20T19:45:11.709Z,7.5
2022-09-20T19:48:11.712Z,7.5
2022-09-20T19:51:11.634Z,7.4
2022-09-20T19:54:11.999Z,7.4
2022-09-20T19:57:11.648Z,7.4
2022-09-20T20:00:17.493Z,7.4
2022-09-20T20:03:12.151Z,7.4
2022-09-20T20:06:19.062Z,7.5
2022-09-20T20:09:11.698Z,7.5
2022-09-20T20:12:11.726Z,7.4
2022-09-20T20:15:11.662Z,7.4
2022-09-20T20:18:16.926Z,7.5
2022-09-20T20:21:11.677Z,7.5
2022-09-20T20:24:11.865Z,7.4
2022-09-20T20:27:11.602Z,7.2
2022-09-20T20:30:11.804Z,7.2
2022-09-20T20:33:11.695Z,7.1
2022-09-20T20:36:11.682Z,7
2022-09-20T20:39:11.790Z,7
2022-09-20T20:42:13.621Z,6.9
2022-09-20T20:45:11.783Z,6.7
2022-09-20T20:48:11.676Z,6.6
2022-09-20T20:51:11.761Z,6.6
2022-09-20T20:54:11.912Z,6.5
2022-09-20T20:57:11.694Z,6.5
2022-09-20T21:00:11.786Z,6.5
2022-09-20T21:03:11.886Z,6.5
2022-09-20T21:06:11.717Z,6.5
2022-09-20T21:09:11.776Z,6.5
2022-09-20T21:12:11.662Z,6.5
2022-09-20T21:15:11.737Z,6.5
2022-09-20T21:18:11.690Z,6.4
2022-09-20T21:21:11.705Z,6.5
2022-09-20T21:24:11.826Z,6.5
2022-09-20T21:27:11.735Z,6.4
2022-09-20T21:30:11.686Z,6.4
2022-09-20T21:33:11.688Z,6.2
2022-09-20T21:36:11.683Z,6.2
2022-09-20T21:39:11.871Z,6.2
2022-09-20T21:42:11.649Z,6.2
2022-09-20T21:45:11.774Z,6.4
2022-09-20T21:48:11.680Z,6.2
2022-09-20T21:51:11.662Z,6.2
2022-09-20T21:54:11.977Z,6.4
2022-09-20T21:57:11.667Z,6.2
2022-09-20T22:00:11.841Z,6.2
2022-09-20T22:03:11.714Z,6.2
2022-09-20T22:06:11.704Z,6.2
2022-09-20T22:09:11.900Z,6.1
2022-09-20T22:12:11.708Z,6.1
2022-09-20T22:15:11.654Z,6.1
2022-09-20T22:18:11.742Z,6
2022-09-20T22:21:11.711Z,6
2022-09-20T22:24:11.985Z,6
2022-09-20T22:27:11.666Z,5.9
2022-09-20T22:30:16.218Z,5.9
2022-09-20T22:33:11.670Z,5.7
2022-09-20T22:36:11.717Z,5.6
2022-09-20T22:39:11.899Z,5.6
2022-09-20T22:42:11.695Z,5.5
2022-09-20T22:45:11.705Z,5.4
2022-09-20T22:48:11.668Z,5.4
2022-09-20T22:51:11.675Z,5.4
2022-09-20T22:54:12.239Z,5.4
2022-09-20T22:57:11.609Z,5.2
2022-09-20T23:00:11.834Z,5.2
2022-09-20T23:03:11.701Z,5.2
2022-09-20T23:06:11.678Z,5.1
2022-09-20T23:09:11.845Z,5.1
2022-09-20T23:12:11.692Z,5.1
2022-09-20T23:15:11.701Z,5
2022-09-20T23:18:11.773Z,5
2022-09-20T23:21:11.740Z,4.9
2022-09-20T23:24:11.648Z,4.9
2022-09-20T23:27:11.640Z,4.9
2022-09-20T23:30:11.692Z,4.9
2022-09-20T23:33:12.000Z,4.9
2022-09-20T23:36:11.742Z,4.9
2022-09-20T23:39:11.751Z,4.9
2022-09-20T23:42:11.663Z,4.9
2022-09-20T23:45:11.745Z,4.9
2022-09-20T23:48:11.711Z,4.9
2022-09-20T23:51:11.685Z,4.7
2022-09-20T23:54:11.659Z,4.7
2022-09-20T23:57:11.627Z,4.7
